createdAt,value
2018-06-05T00:00:31.412Z,37.00
2018-06-05T00:01:31.602Z,37.80
2018-06-05T00:02:31.405Z,37.30
2018-06-05T00:03:31.392Z,37.60
2018-06-05T00:04:31.610Z,37.20
2018-06-05T00:05:31.424Z,40.60
2018-06-05T00:06:31.611Z,41.60
2018-06-05T00:07:31.414Z,51.20
2018-06-05T00:08:31.415Z,48.60
2018-06-05T00:09:31.625Z,48.00
2018-06-05T00:10:31.408Z,49.10
2018-06-05T00:11:31.429Z,48.80
2018-06-05T00:12:31.416Z,44.50
2018-06-05T00:13:31.628Z,44.50
2018-06-05T00:14:31.427Z,44.20
2018-06-05T00:15:31.425Z,45.90
2018-06-05T00:16:31.640Z,47.30
2018-06-05T00:17:31.440Z,46.90
2018-06-05T00:18:31.436Z,47.60
2018-06-05T00:19:31.426Z,47.40
2018-06-05T00:20:31.428Z,45.60
2018-06-05T00:21:31.470Z,50.40
2018-06-05T00:22:31.433Z,52.50
2018-06-05T00:23:31.434Z,54.60
2018-06-05T00:24:31.437Z,56.50
2018-06-05T00:25:31.670Z,54.90
2018-06-05T00:26:31.643Z,59.30
2018-06-05T00:27:31.443Z,56.70
2018-06-05T00:28:31.446Z,60.40
2018-06-05T00:29:31.450Z,61.10
2018-06-05T00:30:31.459Z,64.00
2018-06-05T00:31:31.451Z,58.50
2018-06-05T00:32:31.659Z,53.80
2018-06-05T00:33:31.657Z,59.30
2018-06-05T00:34:31.458Z,59.70
2018-06-05T00:35:31.671Z,59.10
2018-06-05T00:36:31.464Z,63.70
2018-06-05T00:37:31.481Z,66.40
2018-06-05T00:38:31.668Z,61.50
2018-06-05T00:39:31.469Z,61.60
2018-06-05T00:40:31.675Z,63.10
2018-06-05T00:41:31.484Z,61.00
2018-06-05T00:42:31.676Z,61.40
2018-06-05T00:43:31.490Z,60.20
2018-06-05T00:44:31.691Z,59.10
2018-06-05T00:45:31.693Z,61.40
2018-06-05T00:46:31.481Z,61.00
2018-06-05T00:47:31.692Z,57.40
2018-06-05T00:48:31.499Z,60.80
2018-06-05T00:49:31.490Z,58.20
2018-06-05T00:50:31.490Z,61.50
2018-06-05T00:51:31.507Z,59.50
2018-06-05T00:52:31.508Z,59.40
2018-06-05T00:53:31.498Z,57.00
2018-06-05T00:54:31.506Z,57.60
2018-06-05T00:55:31.502Z,59.80
2018-06-05T00:56:31.509Z,59.30
2018-06-05T00:57:31.713Z,60.70
2018-06-05T00:58:31.523Z,60.50
2018-06-05T00:59:31.733Z,58.60
2018-06-05T01:00:31.717Z,55.70
2018-06-05T01:01:31.518Z,59.40
2018-06-05T01:02:31.720Z,56.70
2018-06-05T01:03:31.722Z,60.20
2018-06-05T01:04:31.544Z,59.60
2018-06-05T01:05:31.742Z,58.20
2018-06-05T01:06:31.565Z,58.30
2018-06-05T01:07:31.757Z,61.40
2018-06-05T01:08:31.545Z,63.00
2018-06-05T01:09:31.548Z,59.40
2018-06-05T01:10:31.537Z,61.70
2018-06-05T01:11:31.556Z,62.10
2018-06-05T01:12:31.574Z,65.30
2018-06-05T01:13:31.764Z,65.70
2018-06-05T01:14:31.549Z,68.30
2018-06-05T01:15:31.553Z,65.70
2018-06-05T01:16:31.561Z,65.30
2018-06-05T01:17:31.584Z,64.00
2018-06-05T01:18:31.759Z,67.10
2018-06-05T01:19:31.762Z,68.50
2018-06-05T01:20:31.564Z,66.80
2018-06-05T01:21:31.778Z,70.80
2018-06-05T01:22:31.572Z,68.60
2018-06-05T01:23:31.782Z,67.40
2018-06-05T01:24:31.591Z,66.40
2018-06-05T01:25:31.603Z,66.00
2018-06-05T01:26:31.799Z,69.10
2018-06-05T01:27:31.790Z,68.60
2018-06-05T01:28:31.592Z,70.10
2018-06-05T01:29:31.787Z,70.20
2018-06-05T01:30:31.585Z,72.60
2018-06-05T01:31:31.603Z,68.20
2018-06-05T01:32:31.607Z,68.60
2018-06-05T01:33:31.611Z,67.80
2018-06-05T01:34:31.806Z,66.80
2018-06-05T01:35:31.801Z,69.50
2018-06-05T01:36:31.802Z,68.60
2018-06-05T01:37:31.601Z,64.10
2018-06-05T01:38:31.818Z,68.50
2018-06-05T01:39:31.621Z,63.40
2018-06-05T01:40:31.611Z,62.80
2018-06-05T01:41:31.610Z,67.40
2018-06-05T01:42:31.627Z,66.50
2018-06-05T01:43:31.620Z,67.00
2018-06-05T01:44:31.627Z,67.80
2018-06-05T01:45:31.620Z,64.10
2018-06-05T01:46:31.825Z,73.30
2018-06-05T01:47:31.653Z,69.40
2018-06-05T01:48:31.839Z,70.40
2018-06-05T01:49:31.632Z,67.30
2018-06-05T01:50:31.634Z,73.70
2018-06-05T01:51:31.837Z,68.90
2018-06-05T01:52:31.649Z,70.70
2018-06-05T01:53:31.653Z,69.30
2018-06-05T01:54:31.662Z,70.90
2018-06-05T01:55:31.645Z,71.00
2018-06-05T01:56:31.863Z,74.90
2018-06-05T01:57:31.649Z,69.60
2018-06-05T01:58:31.855Z,77.70
2018-06-05T01:59:31.655Z,77.40
2018-06-05T02:00:31.671Z,75.70
2018-06-05T02:01:31.672Z,77.80
2018-06-05T02:02:31.875Z,79.20
2018-06-05T02:03:31.665Z,80.50
2018-06-05T02:04:31.667Z,80.80
2018-06-05T02:05:31.671Z,81.20
2018-06-05T02:06:31.685Z,74.40
2018-06-05T02:07:31.678Z,82.70
2018-06-05T02:08:31.679Z,82.50
2018-06-05T02:09:31.884Z,78.10
2018-06-05T02:10:31.683Z,84.00
2018-06-05T02:11:31.686Z,80.00
2018-06-05T02:12:31.707Z,78.60
2018-06-05T02:13:31.921Z,79.70
2018-06-05T02:14:31.895Z,79.30
2018-06-05T02:15:31.705Z,78.70
2018-06-05T02:16:31.697Z,79.40
2018-06-05T02:17:31.713Z,82.60
2018-06-05T02:18:31.707Z,80.80
2018-06-05T02:19:31.907Z,76.40
2018-06-05T02:20:31.721Z,83.60
2018-06-05T02:21:31.710Z,81.40
2018-06-05T02:22:31.913Z,85.10
2018-06-05T02:23:31.917Z,76.50
2018-06-05T02:24:31.725Z,80.50
2018-06-05T02:25:31.724Z,77.70
2018-06-05T02:26:31.925Z,81.80
2018-06-05T02:27:31.739Z,84.00
2018-06-05T02:28:31.728Z,80.20
2018-06-05T02:29:31.731Z,80.80
2018-06-05T02:30:31.753Z,80.50
2018-06-05T02:31:31.759Z,77.30
2018-06-05T02:32:31.749Z,85.20
2018-06-05T02:33:31.751Z,79.50
2018-06-05T02:34:31.997Z,81.90
2018-06-05T02:35:31.961Z,84.20
2018-06-05T02:36:31.951Z,81.40
2018-06-05T02:37:31.749Z,81.20
2018-06-05T02:38:31.753Z,80.80
2018-06-05T02:39:31.765Z,79.60
2018-06-05T02:40:31.771Z,82.40
2018-06-05T02:41:31.974Z,79.10
2018-06-05T02:42:31.989Z,83.80
2018-06-05T02:43:31.764Z,81.60
2018-06-05T02:44:31.782Z,75.70
2018-06-05T02:45:31.986Z,82.00
2018-06-05T02:46:31.772Z,81.90
2018-06-05T02:47:31.784Z,85.00
2018-06-05T02:48:31.775Z,77.80
2018-06-05T02:49:31.990Z,86.80
2018-06-05T02:50:31.788Z,80.90
2018-06-05T02:51:31.994Z,79.20
2018-06-05T02:52:31.801Z,84.10
2018-06-05T02:53:31.994Z,82.00
2018-06-05T02:54:31.788Z,80.80
2018-06-05T02:55:31.791Z,89.00
2018-06-05T02:56:31.792Z,84.80
2018-06-05T02:57:31.807Z,85.10
2018-06-05T02:58:31.798Z,87.20
2018-06-05T02:59:32.016Z,91.60
2018-06-05T03:00:31.821Z,87.90
2018-06-05T03:01:32.025Z,81.30
2018-06-05T03:02:31.818Z,85.70
2018-06-05T03:03:32.023Z,85.90
2018-06-05T03:04:31.825Z,89.50
2018-06-05T03:05:31.815Z,84.90
2018-06-05T03:06:31.832Z,83.90
2018-06-05T03:07:31.821Z,81.70
2018-06-05T03:08:31.832Z,82.20
2018-06-05T03:09:31.844Z,85.60
2018-06-05T03:10:31.836Z,83.60
2018-06-05T03:11:31.828Z,89.90
2018-06-05T03:12:31.847Z,93.10
2018-06-05T03:13:31.847Z,88.90
2018-06-05T03:14:31.858Z,82.20
2018-06-05T03:15:31.847Z,81.10
2018-06-05T03:16:32.046Z,84.10
2018-06-05T03:17:31.841Z,83.10
2018-06-05T03:18:31.844Z,86.40
2018-06-05T03:19:31.851Z,84.20
2018-06-05T03:20:31.861Z,85.80
2018-06-05T03:21:31.852Z,84.60
2018-06-05T03:22:32.068Z,86.90
2018-06-05T03:23:32.069Z,87.90
2018-06-05T03:24:31.871Z,86.70
2018-06-05T03:25:32.074Z,90.20
2018-06-05T03:26:32.064Z,85.90
2018-06-05T03:27:31.862Z,79.80
2018-06-05T03:28:31.870Z,81.10
2018-06-05T03:29:31.869Z,80.30
2018-06-05T03:30:32.090Z,79.20
2018-06-05T03:31:32.084Z,75.00
2018-06-05T03:32:31.885Z,79.20
2018-06-05T03:33:31.891Z,77.20
2018-06-05T03:34:31.902Z,71.80
2018-06-05T03:35:31.894Z,72.00
2018-06-05T03:36:31.887Z,74.10
2018-06-05T03:37:31.909Z,68.40
2018-06-05T03:38:31.921Z,72.80
2018-06-05T03:39:31.907Z,74.80
2018-06-05T03:40:31.891Z,74.60
2018-06-05T03:41:31.894Z,71.90
2018-06-05T03:42:31.901Z,70.70
2018-06-05T03:43:32.121Z,72.20
2018-06-05T03:44:31.912Z,74.90
2018-06-05T03:45:31.906Z,72.40
2018-06-05T03:46:32.110Z,74.90
2018-06-05T03:47:31.938Z,75.10
2018-06-05T03:48:31.939Z,77.60
2018-06-05T03:49:31.938Z,76.80
2018-06-05T03:50:31.926Z,73.80
2018-06-05T03:51:32.132Z,72.10
2018-06-05T03:52:31.918Z,74.00
2018-06-05T03:53:32.206Z,76.50
2018-06-05T03:54:31.949Z,74.30
2018-06-05T03:55:32.143Z,79.20
2018-06-05T03:56:31.957Z,75.80
2018-06-05T03:57:31.932Z,79.40
2018-06-05T03:58:31.931Z,79.10
2018-06-05T03:59:31.964Z,77.30
2018-06-05T04:00:31.967Z,78.90
2018-06-05T04:01:31.937Z,76.60
2018-06-05T04:02:31.953Z,79.20
2018-06-05T04:03:31.942Z,83.90
2018-06-05T04:04:32.160Z,84.70
2018-06-05T04:05:31.958Z,81.70
2018-06-05T04:06:31.951Z,79.00
2018-06-05T04:07:31.948Z,83.80
2018-06-05T04:08:32.154Z,79.10
2018-06-05T04:09:32.168Z,78.90
2018-06-05T04:10:31.972Z,80.70
2018-06-05T04:11:31.958Z,82.10
2018-06-05T04:12:31.962Z,87.20
2018-06-05T04:13:31.962Z,85.20
2018-06-05T04:14:31.963Z,84.00
2018-06-05T04:15:31.967Z,83.00
2018-06-05T04:16:31.968Z,86.20
2018-06-05T04:17:31.972Z,88.40
2018-06-05T04:18:32.184Z,80.70
2018-06-05T04:19:31.972Z,79.80
2018-06-05T04:20:31.974Z,81.40
2018-06-05T04:21:31.980Z,82.70
2018-06-05T04:22:32.183Z,83.60
2018-06-05T04:23:31.979Z,85.90
2018-06-05T04:24:32.194Z,84.10
2018-06-05T04:25:31.986Z,86.10
2018-06-05T04:26:31.985Z,87.70
2018-06-05T04:27:32.022Z,78.40
2018-06-05T04:28:32.194Z,83.00
2018-06-05T04:29:32.199Z,83.40
2018-06-05T04:30:32.206Z,80.90
2018-06-05T04:31:31.995Z,86.30
2018-06-05T04:32:32.213Z,77.80
2018-06-05T04:33:32.018Z,90.10
2018-06-05T04:34:32.001Z,84.40
2018-06-05T04:35:32.014Z,82.10
2018-06-05T04:36:32.210Z,76.90
2018-06-05T04:37:32.023Z,83.60
2018-06-05T04:38:32.222Z,82.80
2018-06-05T04:39:32.213Z,81.10
2018-06-05T04:40:32.022Z,81.20
2018-06-05T04:41:32.231Z,82.10
2018-06-05T04:42:32.016Z,79.60
2018-06-05T04:43:32.018Z,79.80
2018-06-05T04:44:32.021Z,83.10
2018-06-05T04:45:32.021Z,80.20
2018-06-05T04:46:32.034Z,76.70
2018-06-05T04:47:32.024Z,81.50
2018-06-05T04:48:32.231Z,81.00
2018-06-05T04:49:32.028Z,81.50
2018-06-05T04:50:32.031Z,79.80
2018-06-05T04:51:32.043Z,79.50
2018-06-05T04:52:32.038Z,81.00
2018-06-05T04:53:32.039Z,79.00
2018-06-05T04:54:32.035Z,79.50
2018-06-05T04:55:32.068Z,81.60
2018-06-05T04:56:32.041Z,78.60
2018-06-05T04:57:32.070Z,80.60
2018-06-05T04:58:32.048Z,81.00
2018-06-05T04:59:32.047Z,77.50
2018-06-05T05:00:32.254Z,78.60
2018-06-05T05:01:32.064Z,76.70
2018-06-05T05:02:32.051Z,80.30
2018-06-05T05:03:32.057Z,79.50
2018-06-05T05:04:32.057Z,83.50
2018-06-05T05:05:32.263Z,74.90
2018-06-05T05:06:32.060Z,77.80
2018-06-05T05:07:32.073Z,80.60
2018-06-05T05:08:32.080Z,78.10
2018-06-05T05:09:32.066Z,81.00
2018-06-05T05:10:32.084Z,78.60
2018-06-05T05:11:32.083Z,81.80
2018-06-05T05:12:32.071Z,81.50
2018-06-05T05:13:32.073Z,79.20
2018-06-05T05:14:32.085Z,80.40
2018-06-05T05:15:32.090Z,76.60
2018-06-05T05:16:32.101Z,79.60
2018-06-05T05:17:32.081Z,76.60
2018-06-05T05:18:32.103Z,78.30
2018-06-05T05:19:32.118Z,81.40
2018-06-05T05:20:32.103Z,74.00
2018-06-05T05:21:32.104Z,79.70
2018-06-05T05:22:32.116Z,78.70
2018-06-05T05:23:32.094Z,73.30
2018-06-05T05:24:32.108Z,79.70
2018-06-05T05:25:32.115Z,78.40
2018-06-05T05:26:32.331Z,75.10
2018-06-05T05:27:32.130Z,74.10
2018-06-05T05:28:32.122Z,73.30
2018-06-05T05:29:32.122Z,74.70
2018-06-05T05:30:32.108Z,77.20
2018-06-05T05:31:32.109Z,74.30
2018-06-05T05:32:32.123Z,76.40
2018-06-05T05:33:32.155Z,73.80
2018-06-05T05:34:32.118Z,75.50
2018-06-05T05:35:32.127Z,67.30
2018-06-05T05:36:32.128Z,72.60
2018-06-05T05:37:32.124Z,72.40
2018-06-05T05:38:32.125Z,71.80
2018-06-05T05:39:32.144Z,80.40
2018-06-05T05:40:32.334Z,76.50
2018-06-05T05:41:32.154Z,70.80
2018-06-05T05:42:32.137Z,70.20
2018-06-05T05:43:32.138Z,67.90
2018-06-05T05:44:32.345Z,67.90
2018-06-05T05:45:32.347Z,67.60
2018-06-05T05:46:32.146Z,65.00
2018-06-05T05:47:32.157Z,68.40
2018-06-05T05:48:32.152Z,66.50
2018-06-05T05:49:32.363Z,68.70
2018-06-05T05:50:32.164Z,66.30
2018-06-05T05:51:32.359Z,64.10
2018-06-05T05:52:32.377Z,66.00
2018-06-05T05:53:32.162Z,63.20
2018-06-05T05:54:32.378Z,66.00
2018-06-05T05:55:32.165Z,67.00
2018-06-05T05:56:32.170Z,65.10
2018-06-05T05:57:32.169Z,63.90
2018-06-05T05:58:32.372Z,61.40
2018-06-05T05:59:32.187Z,63.70
2018-06-05T06:00:32.412Z,63.10
2018-06-05T06:01:32.409Z,61.50
2018-06-05T06:02:32.180Z,61.90
2018-06-05T06:03:32.180Z,63.40
2018-06-05T06:04:32.185Z,61.50
2018-06-05T06:05:32.184Z,64.40
2018-06-05T06:06:32.193Z,60.80
2018-06-05T06:07:32.397Z,61.30
2018-06-05T06:08:32.202Z,63.60
2018-06-05T06:09:32.196Z,57.50
2018-06-05T06:10:32.208Z,61.00
2018-06-05T06:11:32.212Z,61.70
2018-06-05T06:12:32.216Z,58.70
2018-06-05T06:13:32.419Z,56.90
2018-06-05T06:14:32.425Z,60.40
2018-06-05T06:15:32.225Z,54.60
2018-06-05T06:16:32.223Z,55.10
2018-06-05T06:17:32.225Z,57.20
2018-06-05T06:18:32.214Z,53.50
2018-06-05T06:19:32.226Z,53.50
2018-06-05T06:20:32.420Z,56.40
2018-06-05T06:21:32.234Z,54.10
2018-06-05T06:22:32.234Z,53.00
2018-06-05T06:23:32.427Z,50.20
2018-06-05T06:24:32.228Z,49.30
2018-06-05T06:25:32.431Z,52.20
2018-06-05T06:26:32.231Z,53.10
2018-06-05T06:27:32.231Z,49.40
2018-06-05T06:28:32.246Z,51.10
2018-06-05T06:29:32.443Z,49.10
2018-06-05T06:30:32.241Z,48.10
2018-06-05T06:31:32.444Z,52.20
2018-06-05T06:32:32.450Z,51.30
2018-06-05T06:33:32.245Z,51.90
2018-06-05T06:34:32.259Z,49.50
2018-06-05T06:35:32.256Z,44.50
2018-06-05T06:36:32.253Z,47.80
2018-06-05T06:37:32.258Z,43.90
2018-06-05T06:38:32.261Z,48.00
2018-06-05T06:39:32.472Z,46.30
2018-06-05T06:40:32.475Z,47.00
2018-06-05T06:41:32.275Z,46.90
2018-06-05T06:42:32.280Z,45.40
2018-06-05T06:43:32.282Z,45.30
2018-06-05T06:44:32.286Z,48.10
2018-06-05T06:45:32.280Z,43.60
2018-06-05T06:46:32.277Z,41.20
2018-06-05T06:47:32.276Z,43.30
2018-06-05T06:48:32.300Z,44.30
2018-06-05T06:49:32.283Z,43.10
2018-06-05T06:50:32.296Z,44.30
2018-06-05T06:51:32.298Z,44.40
2018-06-05T06:52:32.502Z,45.00
2018-06-05T06:53:32.496Z,48.10
2018-06-05T06:54:32.547Z,48.20
2018-06-05T06:55:32.298Z,49.10
2018-06-05T06:56:32.299Z,48.40
2018-06-05T06:57:32.504Z,50.70
2018-06-05T06:58:32.319Z,48.60
2018-06-05T06:59:32.316Z,51.00
2018-06-05T07:00:32.512Z,49.10
2018-06-05T07:01:32.312Z,46.50
2018-06-05T07:02:32.313Z,43.50
2018-06-05T07:03:32.564Z,44.40
2018-06-05T07:04:32.520Z,46.10
2018-06-05T07:05:32.320Z,44.50
2018-06-05T07:06:32.332Z,44.00
2018-06-05T07:07:32.323Z,46.00
2018-06-05T07:08:32.333Z,44.90
2018-06-05T07:09:32.530Z,46.00
2018-06-05T07:10:32.333Z,45.90
2018-06-05T07:11:32.548Z,44.50
2018-06-05T07:12:32.344Z,43.20
2018-06-05T07:13:32.342Z,45.40
2018-06-05T07:14:32.339Z,44.90
2018-06-05T07:15:32.341Z,44.40
2018-06-05T07:16:32.346Z,44.90
2018-06-05T07:17:32.370Z,44.20
2018-06-05T07:18:32.347Z,45.80
2018-06-05T07:19:32.562Z,42.70
2018-06-05T07:20:32.359Z,44.80
2018-06-05T07:21:32.361Z,45.40
2018-06-05T07:22:32.354Z,49.90
2018-06-05T07:23:32.358Z,48.30
2018-06-05T07:24:32.364Z,48.60
2018-06-05T07:25:32.579Z,44.80
2018-06-05T07:26:32.577Z,45.00
2018-06-05T07:27:32.367Z,42.20
2018-06-05T07:28:32.394Z,41.70
2018-06-05T07:29:32.386Z,40.90
2018-06-05T07:30:32.377Z,41.90
2018-06-05T07:31:32.388Z,41.60
2018-06-05T07:32:32.591Z,40.60
2018-06-05T07:33:32.396Z,40.10
2018-06-05T07:34:32.392Z,38.80
2018-06-05T07:35:32.615Z,39.30
2018-06-05T07:36:32.405Z,37.70
2018-06-05T07:37:32.391Z,37.60
2018-06-05T07:38:32.389Z,39.30
2018-06-05T07:39:32.420Z,42.70
2018-06-05T07:40:32.397Z,46.10
2018-06-05T07:41:32.600Z,45.20
2018-06-05T07:42:32.618Z,41.90
2018-06-05T07:43:32.402Z,44.60
2018-06-05T07:44:32.608Z,45.20
2018-06-05T07:45:32.421Z,44.30
2018-06-05T07:46:32.635Z,48.40
2018-06-05T07:47:32.639Z,47.20
2018-06-05T07:48:32.642Z,45.90
2018-06-05T07:49:32.619Z,45.40
2018-06-05T07:50:32.419Z,45.50
2018-06-05T07:51:32.421Z,45.80
2018-06-05T07:52:32.428Z,43.80
2018-06-05T07:53:32.427Z,44.80
2018-06-05T07:54:32.428Z,39.60
2018-06-05T07:55:32.642Z,41.40
2018-06-05T07:56:32.635Z,39.60
2018-06-05T07:57:32.435Z,37.00
2018-06-05T07:58:32.442Z,39.30
2018-06-05T07:59:32.642Z,44.50
2018-06-05T08:00:32.644Z,36.30
2018-06-05T08:01:32.447Z,36.60
2018-06-05T08:02:32.458Z,43.20
2018-06-05T08:03:32.664Z,40.60
2018-06-05T08:04:32.656Z,40.90
2018-06-05T08:05:32.456Z,39.40
2018-06-05T08:06:32.460Z,39.40
2018-06-05T08:07:32.459Z,40.40
2018-06-05T08:08:32.483Z,43.50
2018-06-05T08:09:32.665Z,46.90
2018-06-05T08:10:32.680Z,48.20
2018-06-05T08:11:32.680Z,47.70
2018-06-05T08:12:32.687Z,51.70
2018-06-05T08:13:32.677Z,51.00
2018-06-05T08:14:32.478Z,52.90
2018-06-05T08:15:32.680Z,50.60
2018-06-05T08:16:32.483Z,51.80
2018-06-05T08:17:32.685Z,49.00
2018-06-05T08:18:32.487Z,50.20
2018-06-05T08:19:32.713Z,51.90
2018-06-05T08:20:32.511Z,53.50
2018-06-05T08:21:32.503Z,53.00
2018-06-05T08:22:32.511Z,50.70
2018-06-05T08:23:32.514Z,51.60
2018-06-05T08:24:32.730Z,53.30
2018-06-05T08:25:32.519Z,51.10
2018-06-05T08:26:32.718Z,52.50
2018-06-05T08:27:32.521Z,49.90
2018-06-05T08:28:32.710Z,50.40
2018-06-05T08:29:32.736Z,51.70
2018-06-05T08:30:32.514Z,57.10
2018-06-05T08:31:32.516Z,53.40
2018-06-05T08:32:32.528Z,51.20
2018-06-05T08:33:32.521Z,49.70
2018-06-05T08:34:32.724Z,53.30
2018-06-05T08:35:32.529Z,50.80
2018-06-05T08:36:32.530Z,54.40
2018-06-05T08:37:32.530Z,52.80
2018-06-05T08:38:32.530Z,49.50
2018-06-05T08:39:32.558Z,54.70
2018-06-05T08:40:32.759Z,51.30
2018-06-05T08:41:32.552Z,49.70
2018-06-05T08:42:32.568Z,48.50
2018-06-05T08:43:32.544Z,51.40
2018-06-05T08:44:32.558Z,47.70
2018-06-05T08:45:32.551Z,47.00
2018-06-05T08:46:32.562Z,49.50
2018-06-05T08:47:32.560Z,51.80
2018-06-05T08:48:32.765Z,48.80
2018-06-05T08:49:32.589Z,54.20
2018-06-05T08:50:32.592Z,51.20
2018-06-05T08:51:32.582Z,45.40
2018-06-05T08:52:32.575Z,46.70
2018-06-05T08:53:32.794Z,49.20
2018-06-05T08:54:32.766Z,46.70
2018-06-05T08:55:32.782Z,47.40
2018-06-05T08:56:32.784Z,47.90
2018-06-05T08:57:32.599Z,54.30
2018-06-05T08:58:32.572Z,49.00
2018-06-05T08:59:32.575Z,44.70
2018-06-05T09:00:32.782Z,45.50
2018-06-05T09:01:32.595Z,48.90
2018-06-05T09:02:32.599Z,57.90
2018-06-05T09:03:32.602Z,52.40
2018-06-05T09:04:32.603Z,49.80
2018-06-05T09:05:32.803Z,45.70
2018-06-05T09:06:32.590Z,45.50
2018-06-05T09:07:32.607Z,51.00
2018-06-05T09:08:32.624Z,64.40
2018-06-05T09:09:32.603Z,49.50
2018-06-05T09:10:32.805Z,45.00
2018-06-05T09:11:32.616Z,42.70
2018-06-05T09:12:32.809Z,42.60
2018-06-05T09:13:32.622Z,61.10
2018-06-05T09:14:32.620Z,49.70
2018-06-05T09:15:32.833Z,47.80
2018-06-05T09:16:32.626Z,44.90
2018-06-05T09:17:32.632Z,45.10
2018-06-05T09:18:32.821Z,45.00
2018-06-05T09:19:32.621Z,57.90
2018-06-05T09:20:32.654Z,57.80
2018-06-05T09:21:32.659Z,65.10
2018-06-05T09:22:32.840Z,55.00
2018-06-05T09:23:32.631Z,52.90
2018-06-05T09:24:32.644Z,53.50
2018-06-05T09:25:32.643Z,55.50
2018-06-05T09:26:32.639Z,57.20
2018-06-05T09:27:32.842Z,54.70
2018-06-05T09:28:32.645Z,49.30
2018-06-05T09:29:32.658Z,52.60
2018-06-05T09:30:32.649Z,53.10
2018-06-05T09:31:32.652Z,56.20
2018-06-05T09:32:32.655Z,54.10
2018-06-05T09:33:32.660Z,56.00
2018-06-05T09:34:32.673Z,53.90
2018-06-05T09:35:32.660Z,53.30
2018-06-05T09:36:32.693Z,52.80
2018-06-05T09:37:32.879Z,52.70
2018-06-05T09:38:32.695Z,51.50
2018-06-05T09:39:32.688Z,56.90
2018-06-05T09:40:32.684Z,55.30
2018-06-05T09:41:32.682Z,50.70
2018-06-05T09:42:32.679Z,53.80
2018-06-05T09:43:32.682Z,54.70
2018-06-05T09:44:32.685Z,56.20
2018-06-05T09:45:32.705Z,53.20
2018-06-05T09:46:32.894Z,49.30
2018-06-05T09:47:32.696Z,51.80
2018-06-05T09:48:32.697Z,55.10
2018-06-05T09:49:32.711Z,52.00
2018-06-05T09:50:32.715Z,52.40
2018-06-05T09:51:32.717Z,51.30
2018-06-05T09:52:32.723Z,52.90
2018-06-05T09:53:32.740Z,55.30
2018-06-05T09:54:32.717Z,53.70
2018-06-05T09:55:32.718Z,54.40
2018-06-05T09:56:32.742Z,55.30
2018-06-05T09:57:32.759Z,58.80
2018-06-05T09:58:32.845Z,54.20
2018-06-05T09:59:32.746Z,54.90
2018-06-05T10:00:32.741Z,57.70
2018-06-05T10:01:32.736Z,54.20
2018-06-05T10:02:32.764Z,53.90
2018-06-05T10:03:32.748Z,53.70
2018-06-05T10:04:32.770Z,57.50
2018-06-05T10:05:32.762Z,52.80
2018-06-05T10:06:32.761Z,53.60
2018-06-05T10:07:32.763Z,55.10
2018-06-05T10:08:32.784Z,53.20
2018-06-05T10:09:32.772Z,53.70
2018-06-05T10:10:32.967Z,50.20
2018-06-05T10:11:32.765Z,52.10
2018-06-05T10:12:32.786Z,54.00
2018-06-05T10:13:32.768Z,51.50
2018-06-05T10:14:32.769Z,53.10
2018-06-05T10:15:32.781Z,55.10
2018-06-05T10:16:32.776Z,54.80
2018-06-05T10:17:32.781Z,53.10
2018-06-05T10:18:32.790Z,54.40
2018-06-05T10:19:32.986Z,53.70
2018-06-05T10:20:32.789Z,53.40
2018-06-05T10:21:32.995Z,56.10
2018-06-05T10:22:32.793Z,53.90
2018-06-05T10:23:33.005Z,52.70
2018-06-05T10:24:32.800Z,55.60
2018-06-05T10:25:33.014Z,54.10
2018-06-05T10:26:32.804Z,55.00
2018-06-05T10:27:32.807Z,55.20
2018-06-05T10:28:32.825Z,57.20
2018-06-05T10:29:32.816Z,57.70
2018-06-05T10:30:33.018Z,59.20
2018-06-05T10:31:33.021Z,61.30
2018-06-05T10:32:32.822Z,57.60
2018-06-05T10:33:33.028Z,55.80
2018-06-05T10:34:32.826Z,59.40
2018-06-05T10:35:32.830Z,58.20
2018-06-05T10:36:33.044Z,60.10
2018-06-05T10:37:32.837Z,56.70
2018-06-05T10:38:32.851Z,54.70
2018-06-05T10:39:33.043Z,58.90
2018-06-05T10:40:32.843Z,55.70
2018-06-05T10:41:32.847Z,55.90
2018-06-05T10:42:32.849Z,51.30
2018-06-05T10:43:32.861Z,52.80
2018-06-05T10:44:32.865Z,52.90
2018-06-05T10:45:33.069Z,53.20
2018-06-05T10:46:33.058Z,53.40
2018-06-05T10:47:32.878Z,53.90
2018-06-05T10:48:32.877Z,52.10
2018-06-05T10:49:32.879Z,55.30
2018-06-05T10:50:33.071Z,56.20
2018-06-05T10:51:32.877Z,54.30
2018-06-05T10:52:32.877Z,54.30
2018-06-05T10:53:32.879Z,51.80
2018-06-05T10:54:32.881Z,55.60
2018-06-05T10:55:32.892Z,54.90
2018-06-05T10:56:32.900Z,54.60
2018-06-05T10:57:32.891Z,58.40
2018-06-05T10:58:32.889Z,53.50
2018-06-05T10:59:32.907Z,53.00
2018-06-05T11:00:32.908Z,52.90
2018-06-05T11:01:32.903Z,52.70
2018-06-05T11:02:33.120Z,51.70
2018-06-05T11:03:33.110Z,54.00
2018-06-05T11:04:32.919Z,54.80
2018-06-05T11:05:32.907Z,54.00
2018-06-05T11:06:32.910Z,54.60
2018-06-05T11:07:33.142Z,52.90
2018-06-05T11:08:33.122Z,54.70
2018-06-05T11:09:32.944Z,49.70
2018-06-05T11:10:32.949Z,51.90
2018-06-05T11:11:32.925Z,55.50
2018-06-05T11:12:32.956Z,53.20
2018-06-05T11:13:33.134Z,54.70
2018-06-05T11:14:32.964Z,51.60
2018-06-05T11:15:33.148Z,54.50
2018-06-05T11:16:32.942Z,51.40
2018-06-05T11:17:32.964Z,54.60
2018-06-05T11:18:32.958Z,54.80
2018-06-05T11:19:33.149Z,56.10
2018-06-05T11:20:32.977Z,55.50
2018-06-05T11:21:32.954Z,57.60
2018-06-05T11:22:32.967Z,54.40
2018-06-05T11:23:32.987Z,54.40
2018-06-05T11:24:32.972Z,57.50
2018-06-05T11:25:32.977Z,54.10
2018-06-05T11:26:32.979Z,53.30
2018-06-05T11:27:32.971Z,51.50
2018-06-05T11:28:32.972Z,53.10
2018-06-05T11:29:32.986Z,53.60
2018-06-05T11:30:32.977Z,51.90
2018-06-05T11:31:32.981Z,56.10
2018-06-05T11:32:33.189Z,55.70
2018-06-05T11:33:32.988Z,54.60
2018-06-05T11:34:32.987Z,51.10
2018-06-05T11:35:32.991Z,55.40
2018-06-05T11:36:33.013Z,55.40
2018-06-05T11:37:33.199Z,53.20
2018-06-05T11:38:33.002Z,50.70
2018-06-05T11:39:33.015Z,48.50
2018-06-05T11:40:33.022Z,50.90
2018-06-05T11:41:33.010Z,52.60
2018-06-05T11:42:33.024Z,57.40
2018-06-05T11:43:33.017Z,58.00
2018-06-05T11:44:33.224Z,56.70
2018-06-05T11:45:33.026Z,56.10
2018-06-05T11:46:33.034Z,54.10
2018-06-05T11:47:33.244Z,55.90
2018-06-05T11:48:33.031Z,59.80
2018-06-05T11:49:33.036Z,56.20
2018-06-05T11:50:33.035Z,55.90
2018-06-05T11:51:33.040Z,58.70
2018-06-05T11:52:33.246Z,56.50
2018-06-05T11:53:33.067Z,61.80
2018-06-05T11:54:33.253Z,58.30
2018-06-05T11:55:33.056Z,57.10
2018-06-05T11:56:33.259Z,56.80
2018-06-05T11:57:33.059Z,58.80
2018-06-05T11:58:33.061Z,54.90
2018-06-05T11:59:33.269Z,55.70
2018-06-05T12:00:33.070Z,58.70
2018-06-05T12:01:33.273Z,56.10
2018-06-05T12:02:33.078Z,60.60
2018-06-05T12:03:33.087Z,57.40
2018-06-05T12:04:33.080Z,57.80
2018-06-05T12:05:33.095Z,68.50
2018-06-05T12:06:33.299Z,60.30
2018-06-05T12:07:33.089Z,64.50
2018-06-05T12:08:33.094Z,64.30
2018-06-05T12:09:33.095Z,68.00
2018-06-05T12:10:33.097Z,69.90
2018-06-05T12:11:33.314Z,66.60
2018-06-05T12:12:33.106Z,76.30
2018-06-05T12:13:33.132Z,72.60
2018-06-05T12:14:33.110Z,74.60
2018-06-05T12:15:33.132Z,68.70
2018-06-05T12:16:33.141Z,70.70
2018-06-05T12:17:33.120Z,70.20
2018-06-05T12:18:33.127Z,72.50
2018-06-05T12:19:33.144Z,71.00
2018-06-05T12:20:33.144Z,74.40
2018-06-05T12:21:33.135Z,72.20
2018-06-05T12:22:33.141Z,68.10
2018-06-05T12:23:33.156Z,67.70
2018-06-05T12:24:33.156Z,73.60
2018-06-05T12:25:33.199Z,73.40
2018-06-05T12:26:33.357Z,74.60
2018-06-05T12:27:33.170Z,71.60
2018-06-05T12:28:33.170Z,75.20
2018-06-05T12:29:33.162Z,74.60
2018-06-05T12:30:33.381Z,76.20
2018-06-05T12:31:33.181Z,70.70
2018-06-05T12:32:33.174Z,69.80
2018-06-05T12:33:33.179Z,74.80
2018-06-05T12:34:33.190Z,73.60
2018-06-05T12:35:33.190Z,79.70
2018-06-05T12:36:33.194Z,77.50
2018-06-05T12:37:33.418Z,77.70
2018-06-05T12:38:33.196Z,71.50
2018-06-05T12:39:33.199Z,65.30
2018-06-05T12:40:33.203Z,67.60
2018-06-05T12:41:33.216Z,70.10
2018-06-05T12:42:33.228Z,72.90
2018-06-05T12:43:33.216Z,73.20
2018-06-05T12:44:33.218Z,70.20
2018-06-05T12:45:33.424Z,70.20
2018-06-05T12:46:33.236Z,70.30
2018-06-05T12:47:33.441Z,72.10
2018-06-05T12:48:33.236Z,67.80
2018-06-05T12:49:33.238Z,62.70
2018-06-05T12:50:33.449Z,69.50
2018-06-05T12:51:33.242Z,69.30
2018-06-05T12:52:33.255Z,68.30